Time;durP1;ratioP1;P1;durP2;ratioP2;P2;SDS_P1;SDS_P2;PMS_P1;PMS_P2;Temp;Humidity;BMP_temperature;BMP_pressure;BME280_temperature;BME280_humidity;BME280_pressure;Samples;Min_cycle;Max_cycle;Signal;HPM_P1;HPM_P2
2021/09/27 00:00:25;;;;;;;66.90;29.77;;;;;;;14.49;100.00;96106.66;1022842;28;20027;-66
2021/09/27 00:00:59;;;;;;;84.35;30.90;;;;;;;14.52;100.00;96110.59;1022773;29;20042;-65
2021/09/27 00:01:31;;;;;;;78.30;29.77;;;;;;;14.55;100.00;96110.88;1022604;29;20031;-65
2021/09/27 00:02:01;;;;;;;70.00;30.35;;;;;;;14.54;100.00;96109.28;1024450;28;20110;-65
2021/09/27 00:02:31;;;;;;;90.65;32.50;;;;;;;14.53;100.00;96106.91;1028311;28;20042;-65
2021/09/27 00:03:02;;;;;;;102.30;34.08;;;;;;;14.55;100.00;96110.06;1027946;28;20014;-66
2021/09/27 00:03:36;;;;;;;95.68;32.60;;;;;;;14.54;100.00;96108.50;1027170;28;20015;-65
2021/09/27 00:04:06;;;;;;;101.68;33.00;;;;;;;14.52;100.00;96111.41;1027144;28;20106;-65
2021/09/27 00:04:37;;;;;;;90.93;32.20;;;;;;;14.53;100.00;96109.56;1027764;28;20066;-66
2021/09/27 00:05:14;;;;;;;98.18;32.58;;;;;;;14.54;100.00;96109.28;1028415;28;20027;-65
2021/09/27 00:05:44;;;;;;;75.18;29.08;;;;;;;14.51;100.00;96109.81;1035086;28;20042;-66
2021/09/27 00:06:15;;;;;;;87.65;30.95;;;;;;;14.49;100.00;96095.31;1027075;28;20125;-65
2021/09/27 00:06:45;;;;;;;75.82;29.40;;;;;;;14.48;100.00;96104.28;1023796;28;20042;-65
2021/09/27 00:07:19;;;;;;;75.72;28.83;;;;;;;14.53;100.00;96112.19;1026945;28;20651;-66
2021/09/27 00:07:52;;;;;;;69.63;28.40;;;;;;;14.53;100.00;96109.56;1023147;29;20035;-65
2021/09/27 00:08:23;;;;;;;93.03;31.60;;;;;;;14.49;100.00;96108.53;1022732;28;20039;-65
2021/09/27 00:08:53;;;;;;;117.63;35.03;;;;;;;14.53;100.00;96115.63;1023065;29;20465;-64
2021/09/27 00:09:32;;;;;;;64.97;28.70;;;;;;;14.52;100.00;96115.88;1026589;28;20031;-65
2021/09/27 00:10:03;;;;;;;79.88;29.85;;;;;;;14.50;100.00;96112.72;1024425;28;20027;-66
2021/09/27 00:10:39;;;;;;;85.60;31.67;;;;;;;14.51;100.00;96109.81;1023027;29;20027;-66
2021/09/27 00:11:12;;;;;;;91.30;32.70;;;;;;;14.52;100.00;96116.69;1022814;29;20034;-63
2021/09/27 00:11:43;;;;;;;87.25;31.27;;;;;;;14.50;100.00;96110.91;1029508;28;20022;-67
2021/09/27 00:12:13;;;;;;;83.03;31.20;;;;;;;14.55;100.00;96116.16;1025491;28;20031;-63
2021/09/27 00:12:44;;;;;;;71.25;30.02;;;;;;;14.53;100.00;96115.63;1031022;28;20041;-66
2021/09/27 00:13:14;;;;;;;97.13;32.67;;;;;;;14.56;100.00;96106.38;1023629;28;20449;-64
2021/09/27 00:13:47;;;;;;;84.43;32.25;;;;;;;14.51;100.00;96109.81;1031215;28;20026;-66
2021/09/27 00:14:17;;;;;;;83.82;32.13;;;;;;;14.54;100.00;96113.78;1026667;28;20034;-65
2021/09/27 00:14:47;;;;;;;79.65;32.15;;;;;;;14.54;100.00;96119.06;1023419;28;20512;-66
2021/09/27 00:15:27;;;;;;;83.43;30.95;;;;;;;14.55;100.00;96113.50;1028015;28;20027;-65
2021/09/27 00:15:57;;;;;;;107.32;35.05;;;;;;;14.55;100.00;96116.16;1032338;28;20038;-66
2021/09/27 00:16:30;;;;;;;83.70;31.88;;;;;;;14.53;100.00;96106.91;1038235;28;20021;-66
2021/09/27 00:17:03;;;;;;;106.75;33.97;;;;;;;14.55;100.00;96116.16;1036145;28;20113;-65
2021/09/27 00:17:33;;;;;;;83.63;32.35;;;;;;;14.52;100.00;96107.97;1034806;28;20030;-66
2021/09/27 00:18:04;;;;;;;110.07;35.80;;;;;;;14.53;100.00;96104.28;1031208;28;20034;-65
2021/09/27 00:18:35;;;;;;;105.03;34.50;;;;;;;14.52;100.00;96105.31;1027051;28;20033;-66
2021/09/27 00:19:05;;;;;;;90.18;32.50;;;;;;;14.53;100.00;96112.19;1023121;29;20033;-65
2021/09/27 00:19:36;;;;;;;108.75;33.30;;;;;;;14.51;100.00;96115.09;1023084;28;20030;-66
2021/09/27 00:20:07;;;;;;;71.35;30.67;;;;;;;14.53;100.00;96105.06;1027297;28;20019;-65
2021/09/27 00:20:39;;;;;;;74.95;30.92;;;;;;;14.57;100.00;96121.13;1027929;28;20105;-66
2021/09/27 00:21:17;;;;;;;111.78;34.20;;;;;;;14.52;100.00;96115.88;1016470;29;20028;-64
2021/09/27 00:21:48;;;;;;;88.35;32.55;;;;;;;14.56;100.00;96116.94;1019266;29;20521;-64
2021/09/27 00:22:18;;;;;;;79.28;31.88;;;;;;;14.55;100.00;96121.44;1024311;28;20032;-65
2021/09/27 00:22:50;;;;;;;87.68;32.97;;;;;;;14.54;100.00;96113.78;1028932;28;20019;-64
2021/09/27 00:23:21;;;;;;;78.45;31.88;;;;;;;14.54;100.00;96117.19;1026698;28;20034;-64
2021/09/27 00:23:52;;;;;;;95.05;34.00;;;;;;;14.55;100.00;96120.63;1027134;28;20806;-63
2021/09/27 00:24:22;;;;;;;70.85;30.77;;;;;;;14.49;100.00;96108.53;1025284;28;20023;-65
2021/09/27 00:24:52;;;;;;;84.53;32.90;;;;;;;14.55;100.00;96116.16;1027927;28;20026;-62
2021/09/27 00:25:24;;;;;;;80.28;32.08;;;;;;;14.55;100.00;96115.34;1031171;28;20398;-66
2021/09/27 00:25:54;;;;;;;76.50;32.00;;;;;;;14.53;100.00;96114.84;1027073;28;20027;-65
2021/09/27 00:26:25;;;;;;;105.82;34.53;;;;;;;14.54;100.00;96109.28;1023329;29;20027;-65
2021/09/27 00:26:56;;;;;;;91.65;32.63;;;;;;;14.49;100.00;96101.38;1019468;29;20035;-66
2021/09/27 00:27:26;;;;;;;73.10;29.80;;;;;;;14.45;100.00;96100.34;1019282;28;20082;-65
2021/09/27 00:27:57;;;;;;;68.07;31.17;;;;;;;14.54;100.00;96114.56;1023012;28;20082;-65
2021/09/27 00:28:27;;;;;;;79.18;33.28;;;;;;;14.48;100.00;96104.28;1027175;28;20034;-65
2021/09/27 00:28:58;;;;;;;71.57;29.80;;;;;;;14.54;100.00;96108.50;1023131;28;20034;-66
2021/09/27 00:29:28;;;;;;;80.75;33.05;;;;;;;14.54;100.00;96101.34;1026924;28;20622;-65
2021/09/27 00:30:00;;;;;;;73.68;31.45;;;;;;;14.53;100.00;96113.00;1022708;28;20129;-65
2021/09/27 00:30:30;;;;;;;78.47;32.35;;;;;;;14.50;100.00;96105.63;1023087;28;20425;-66
2021/09/27 00:31:01;;;;;;;92.00;34.42;;;;;;;14.53;100.00;96106.91;1027888;28;20034;-66
2021/09/27 00:31:31;;;;;;;81.00;32.60;;;;;;;14.55;100.00;96104.78;1038365;28;20038;-65
2021/09/27 00:32:03;;;;;;;115.78;36.97;;;;;;;14.52;100.00;96105.31;1034821;28;20021;-65
2021/09/27 00:32:36;;;;;;;112.43;36.90;;;;;;;14.53;100.00;96105.06;1019311;29;20550;-66
2021/09/27 00:33:06;;;;;;;99.22;34.58;;;;;;;14.54;100.00;96104.00;1030787;28;20080;-65
2021/09/27 00:33:37;;;;;;;73.40;30.98;;;;;;;14.55;100.00;96104.78;1026637;28;20583;-66
2021/09/27 00:34:07;;;;;;;83.88;33.42;;;;;;;14.54;100.00;96104.00;1023825;28;20027;-65
2021/09/27 00:34:38;;;;;;;83.40;33.15;;;;;;;14.50;100.00;96096.88;1032999;28;20022;-65
2021/09/27 00:35:09;;;;;;;97.93;33.72;;;;;;;14.55;100.00;96104.78;1031119;28;20030;-65
2021/09/27 00:35:40;;;;;;;131.88;37.35;;;;;;;14.55;100.00;96104.78;1030958;28;20104;-65
2021/09/27 00:36:10;;;;;;;75.85;31.17;;;;;;;14.52;100.00;96100.03;1030759;28;20026;-64
2021/09/27 00:36:41;;;;;;;74.93;31.45;;;;;;;14.49;100.00;96097.97;1019361;28;20501;-64
2021/09/27 00:37:11;;;;;;;90.30;33.95;;;;;;;14.50;100.00;96091.59;1031109;28;20115;-66
2021/09/27 00:37:42;;;;;;;80.03;33.00;;;;;;;14.53;100.00;96106.91;1031168;28;20037;-62
2021/09/27 00:38:12;;;;;;;99.95;35.13;;;;;;;14.52;100.00;96094.75;1030790;28;20037;-66
2021/09/27 00:38:42;;;;;;;85.45;33.15;;;;;;;14.38;100.00;96084.84;1030936;28;20057;-65
2021/09/27 00:39:13;;;;;;;81.80;31.70;;;;;;;14.54;100.00;96100.56;1031241;28;20100;-66
2021/09/27 00:39:43;;;;;;;79.78;31.52;;;;;;;14.53;100.00;96101.63;1020098;29;20024;-63
2021/09/27 00:40:18;;;;;;;140.23;39.17;;;;;;;14.50;100.00;96102.16;1019702;29;20131;-66
2021/09/27 00:40:50;;;;;;;102.93;34.13;;;;;;;14.52;100.00;96106.13;1027311;28;20575;-66
2021/09/27 00:41:21;;;;;;;112.35;37.42;;;;;;;14.50;100.00;96091.59;1022238;29;20031;-65
2021/09/27 00:41:54;;;;;;;88.18;32.72;;;;;;;14.52;100.00;96106.13;1023597;28;20034;-65
2021/09/27 00:42:25;;;;;;;84.53;33.50;;;;;;;14.50;100.00;96096.88;1029578;28;20031;-65
2021/09/27 00:42:56;;;;;;;84.50;32.83;;;;;;;14.50;100.00;96096.88;1027145;28;20509;-65
2021/09/27 00:43:27;;;;;;;78.32;32.42;;;;;;;14.51;100.00;96098.47;1023344;29;20023;-65
2021/09/27 00:43:58;;;;;;;86.35;33.88;;;;;;;14.47;100.00;96097.44;1019079;29;20042;-66
2021/09/27 00:44:28;;;;;;;98.22;34.83;;;;;;;14.47;100.00;96094.78;1023105;29;20031;-65
2021/09/27 00:44:59;;;;;;;85.15;33.10;;;;;;;14.50;100.00;96091.59;1022230;29;20034;-65
2021/09/27 00:45:32;;;;;;;87.07;33.58;;;;;;;14.46;100.00;96085.31;1022890;29;20035;-65
2021/09/27 00:46:07;;;;;;;87.55;34.55;;;;;;;14.49;100.00;96100.59;1015213;29;20034;-65
2021/09/27 00:46:37;;;;;;;91.93;34.85;;;;;;;14.49;100.00;96090.81;1022758;28;20035;-65
2021/09/27 00:47:07;;;;;;;93.78;35.42;;;;;;;14.49;100.00;96096.09;1027878;28;20035;-65
2021/09/27 00:47:38;;;;;;;92.00;33.92;;;;;;;14.50;100.00;96099.53;1033246;28;20039;-65
2021/09/27 00:48:09;;;;;;;120.53;37.53;;;;;;;14.50;100.00;96091.59;1035756;28;20026;-65
2021/09/27 00:48:39;;;;;;;83.55;33.63;;;;;;;14.43;100.00;96085.84;1029473;28;20042;-65
2021/09/27 00:49:10;;;;;;;86.30;34.85;;;;;;;14.49;100.00;96098.75;1023974;28;20074;-63
2021/09/27 00:49:40;;;;;;;100.75;36.58;;;;;;;14.42;100.00;96090.34;1026312;28;20055;-66
2021/09/27 00:50:11;;;;;;;97.78;35.83;;;;;;;14.49;100.00;96096.09;1025571;28;20018;-64
2021/09/27 00:50:44;;;;;;;97.30;35.35;;;;;;;14.49;100.00;96095.31;1023166;28;20432;-65
2021/09/27 00:51:21;;;;;;;93.32;35.30;;;;;;;14.48;100.00;96094.50;1030479;28;20038;-64
2021/09/27 00:51:51;;;;;;;79.15;32.00;;;;;;;14.48;100.00;96099.78;1027007;28;20034;-66
2021/09/27 00:52:22;;;;;;;87.63;33.33;;;;;;;14.49;100.00;96095.31;1022959;28;20040;-65
2021/09/27 00:52:53;;;;;;;88.68;34.03;;;;;;;14.44;100.00;96092.72;1024963;28;20035;-66
2021/09/27 00:53:33;;;;;;;85.95;32.53;;;;;;;14.43;100.00;96091.94;1027251;28;20018;-65
2021/09/27 00:54:06;;;;;;;78.93;32.40;;;;;;;14.48;100.00;96096.38;1031109;28;20026;-66
2021/09/27 00:54:36;;;;;;;79.85;32.83;;;;;;;14.44;100.00;96087.44;1024923;28;20078;-64
2021/09/27 00:55:08;;;;;;;79.25;32.03;;;;;;;14.43;100.00;96091.94;1026215;28;20035;-65
2021/09/27 00:55:38;;;;;;;81.30;34.55;;;;;;;14.48;100.00;96099.78;1024774;28;20559;-65
2021/09/27 00:56:09;;;;;;;87.65;34.58;;;;;;;14.48;100.00;96091.09;1023056;28;20050;-65
2021/09/27 00:56:44;;;;;;;86.97;34.65;;;;;;;14.47;100.00;96100.06;1022939;28;20495;-65
2021/09/27 00:57:20;;;;;;;86.05;33.78;;;;;;;14.46;100.00;96091.38;1020788;28;20126;-66
2021/09/27 00:57:52;;;;;;;88.60;34.35;;;;;;;14.47;100.00;96092.94;1023010;28;20023;-65
2021/09/27 00:58:22;;;;;;;72.63;32.22;;;;;;;14.48;100.00;96091.88;1025634;28;20039;-65
2021/09/27 00:58:53;;;;;;;94.20;35.00;;;;;;;14.49;100.00;96095.31;1031101;28;20034;-65
2021/09/27 00:59:24;;;;;;;99.97;35.47;;;;;;;14.46;100.00;96087.94;1027322;28;20041;-64
2021/09/27 00:59:55;;;;;;;100.30;35.50;;;;;;;14.42;100.00;96079.00;1022763;29;20109;-65
2021/09/27 01:00:26;;;;;;;78.60;30.77;;;;;;;14.44;100.00;96082.16;1026802;28;20027;-66
2021/09/27 01:00:57;;;;;;;92.07;33.92;;;;;;;14.43;100.00;96077.94;1031101;28;20567;-66
2021/09/27 01:01:27;;;;;;;87.30;33.33;;;;;;;14.48;100.00;96091.88;1026225;28;20115;-65
2021/09/27 01:01:58;;;;;;;119.95;38.38;;;;;;;14.47;100.00;96094.78;1026995;28;20039;-65
2021/09/27 01:02:28;;;;;;;100.05;36.72;;;;;;;14.43;100.00;96077.94;1027108;28;20041;-65
2021/09/27 01:02:59;;;;;;;76.38;32.53;;;;;;;14.48;100.00;96089.22;1031148;28;20033;-65
2021/09/27 01:03:29;;;;;;;79.47;32.72;;;;;;;14.51;100.00;96090.56;1030706;28;20080;-63
2021/09/27 01:03:59;;;;;;;73.82;32.17;;;;;;;14.50;100.00;96091.59;1027043;28;20108;-63
2021/09/27 01:04:30;;;;;;;76.40;31.95;;;;;;;14.48;100.00;96085.81;1026844;28;20081;-63
2021/09/27 01:05:01;;;;;;;77.97;33.22;;;;;;;14.48;100.00;96089.22;1029044;28;20062;-64
2021/09/27 01:05:32;;;;;;;79.07;33.40;;;;;;;14.49;100.00;96095.31;1026767;28;20034;-65
2021/09/27 01:06:25;;;;;;;71.38;30.45;;;;;;;14.51;100.00;96090.56;1019243;29;20102;-65
2021/09/27 01:07:05;;;;;;;91.70;33.72;;;;;;;14.51;100.00;96085.28;1023795;28;20027;-66
2021/09/27 01:07:47;;;;;;;73.90;31.38;;;;;;;14.50;100.00;96081.84;1035332;28;20110;-64
2021/09/27 01:08:25;;;;;;;80.93;33.30;;;;;;;14.49;100.00;96079.47;1031088;28;20026;-66
2021/09/27 01:09:13;;;;;;;76.95;31.23;;;;;;;14.50;100.00;96092.41;1020769;29;20535;-65
2021/09/27 01:10:08;;;;;;;85.15;33.45;;;;;;;14.50;100.00;96081.84;1031034;28;20550;-66
2021/09/27 01:11:03;;;;;;;89.45;32.58;;;;;;;14.50;100.00;96092.41;1029979;28;20109;-66
2021/09/27 01:11:42;;;;;;;91.15;33.65;;;;;;;14.51;100.00;96093.19;1030443;28;20138;-66
2021/09/27 01:12:24;;;;;;;100.13;34.67;;;;;;;14.52;100.00;96084.19;1036289;28;20129;-65
2021/09/27 01:13:26;;;;;;;90.00;34.58;;;;;;;14.52;100.00;96092.94;1036519;28;20271;-67
2021/09/27 01:14:15;;;;;;;80.60;32.53;;;;;;;14.49;100.00;96090.81;1037111;28;20124;-66
2021/09/27 01:14:57;;;;;;;97.85;34.72;;;;;;;14.53;100.00;96088.44;1034071;28;20447;-65
2021/09/27 01:15:37;;;;;;;106.18;35.08;;;;;;;14.53;100.00;96088.44;1035032;28;20022;-66
2021/09/27 01:16:38;;;;;;;80.93;33.85;;;;;;;14.52;100.00;96094.75;1031021;28;20809;-66
2021/09/27 01:17:29;;;;;;;92.93;34.40;;;;;;;14.51;100.00;96093.19;1037518;28;20025;-66
2021/09/27 01:18:02;;;;;;;76.05;31.60;;;;;;;14.52;100.00;96084.19;1026958;28;20105;-66
2021/09/27 01:18:48;;;;;;;82.35;33.05;;;;;;;14.48;100.00;96075.25;1029591;28;20033;-63
2021/09/27 01:19:49;;;;;;;94.72;35.85;;;;;;;14.52;100.00;96092.13;1022842;29;20023;-65
2021/09/27 01:20:56;;;;;;;98.03;35.13;;;;;;;14.45;100.00;96081.06;1027234;28;20030;-64
2021/09/27 01:21:41;;;;;;;87.72;32.65;;;;;;;14.49;100.00;96082.91;1030195;28;20613;-65
2021/09/27 01:22:28;;;;;;;84.63;33.47;;;;;;;14.47;100.00;96092.16;1026475;28;20701;-67
2021/09/27 01:23:28;;;;;;;95.25;35.00;;;;;;;14.47;100.00;96084.22;1023013;29;20038;-63
2021/09/27 01:24:41;;;;;;;89.75;34.08;;;;;;;14.46;100.00;96080.81;1027315;28;20405;-65
2021/09/27 01:25:45;;;;;;;91.60;32.78;;;;;;;14.46;100.00;96082.66;1035753;28;20057;-65
2021/09/27 01:26:36;;;;;;;94.47;35.20;;;;;;;14.44;100.00;96079.50;1031771;28;20527;-65
2021/09/27 01:27:46;;;;;;;94.97;33.88;;;;;;;14.42;100.00;96081.63;1037635;28;20526;-65
2021/09/27 01:28:26;;;;;;;88.88;33.53;;;;;;;14.42;100.00;96081.63;1039287;28;20021;-66
2021/09/27 01:29:10;;;;;;;94.57;36.33;;;;;;;14.41;100.00;96080.06;1031298;28;20060;-65
2021/09/27 01:29:45;;;;;;;117.43;37.50;;;;;;;14.38;100.00;96074.28;1028710;28;20381;-66
2021/09/27 01:30:18;;;;;;;107.88;38.78;;;;;;;14.38;100.00;96071.66;1023498;28;20035;-65
2021/09/27 01:31:04;;;;;;;171.02;42.55;;;;;;;14.36;100.00;96071.13;1031180;28;20022;-65
2021/09/27 01:32:16;;;;;;;99.75;35.80;;;;;;;14.36;100.00;96068.50;1025309;28;20069;-66
2021/09/27 01:32:55;;;;;;;101.30;34.85;;;;;;;14.34;100.00;96064.53;1034313;28;20026;-65
2021/09/27 01:33:30;;;;;;;109.03;39.05;;;;;;;14.35;100.00;96074.84;1022918;29;20019;-63
2021/09/27 01:34:20;;;;;;;88.65;34.78;;;;;;;14.34;100.00;96073.25;1022173;29;20019;-65
2021/09/27 01:35:02;;;;;;;99.63;35.95;;;;;;;14.35;100.00;96068.75;1025432;28;20039;-65
2021/09/27 01:35:56;;;;;;;79.30;33.45;;;;;;;14.33;100.00;96071.69;1025221;28;20446;-65
2021/09/27 01:36:31;;;;;;;88.88;34.85;;;;;;;14.33;100.00;96069.03;1029941;28;20029;-66
2021/09/27 01:37:38;;;;;;;106.13;37.35;;;;;;;14.33;100.00;96068.25;1026992;28;20058;-66
2021/09/27 01:38:13;;;;;;;106.22;36.50;;;;;;;14.31;100.00;96065.09;1025838;28;20363;-65
2021/09/27 01:39:12;;;;;;;94.38;37.05;;;;;;;14.30;100.00;96072.22;1032595;28;20261;-65
2021/09/27 01:39:57;;;;;;;94.18;34.33;;;;;;;14.27;100.00;96061.44;1035402;28;20050;-65
2021/09/27 01:40:38;;;;;;;78.22;33.45;;;;;;;14.27;100.00;96072.78;1029475;28;20554;-66
2021/09/27 01:41:24;;;;;;;106.00;36.45;;;;;;;14.27;100.00;96072.00;1026989;28;20493;-66
2021/09/27 01:42:02;;;;;;;80.90;34.50;;;;;;;14.26;100.00;96073.06;1031069;28;20030;-65
2021/09/27 01:42:48;;;;;;;118.78;38.90;;;;;;;14.24;100.00;96070.69;1030769;28;20488;-65
2021/09/27 01:43:39;;;;;;;83.22;34.13;;;;;;;14.24;100.00;96068.06;1026549;28;20058;-65
2021/09/27 01:44:13;;;;;;;86.45;34.67;;;;;;;14.24;100.00;96072.56;1033244;28;20017;-61
2021/09/27 01:44:54;;;;;;;99.85;36.30;;;;;;;14.24;100.00;96072.56;1026303;28;20531;-64
2021/09/27 01:45:46;;;;;;;86.25;35.88;;;;;;;14.23;100.00;96066.50;1024527;28;20617;-65
2021/09/27 01:46:31;;;;;;;74.47;32.83;;;;;;;14.22;100.00;96070.22;1018678;29;20016;-64
2021/09/27 01:47:06;;;;;;;77.03;32.67;;;;;;;14.23;100.00;96068.34;1027971;28;20440;-65
2021/09/27 01:47:45;;;;;;;73.80;33.47;;;;;;;14.19;100.00;96062.84;1022301;29;20011;-64
2021/09/27 01:48:19;;;;;;;79.88;33.13;;;;;;;14.21;100.00;96065.97;1023592;28;20030;-65
2021/09/27 01:48:58;;;;;;;88.63;34.88;;;;;;;14.22;100.00;96064.94;1022667;29;20346;-65
2021/09/27 01:50:01;;;;;;;88.32;35.20;;;;;;;14.20;100.00;96066.25;1025570;28;21203;-65
2021/09/27 01:50:36;;;;;;;82.80;32.58;;;;;;;14.20;100.00;96067.03;1030439;28;20030;-65
2021/09/27 01:51:19;;;;;;;79.25;31.33;;;;;;;14.19;100.00;96065.47;1027888;28;20038;-65
2021/09/27 01:52:05;;;;;;;79.55;34.03;;;;;;;14.20;100.00;96067.03;1028518;28;20019;-63
2021/09/27 01:52:42;;;;;;;106.03;36.92;;;;;;;14.18;100.00;96069.16;1022538;28;20015;-66
2021/09/27 01:53:20;;;;;;;113.53;38.85;;;;;;;14.18;100.00;96063.09;1026690;28;20023;-65
2021/09/27 01:54:20;;;;;;;95.88;36.35;;;;;;;14.11;100.00;96058.91;1026688;28;20992;-61
2021/09/27 01:54:54;;;;;;;85.78;35.10;;;;;;;14.16;100.00;96068.66;1030671;28;20033;-64
2021/09/27 01:55:34;;;;;;;81.55;34.47;;;;;;;14.11;100.00;96058.13;1019099;29;20559;-66
2021/09/27 01:56:18;;;;;;;76.93;33.72;;;;;;;14.15;100.00;96065.25;1025737;28;20393;-66
2021/09/27 01:57:05;;;;;;;104.45;37.45;;;;;;;14.13;100.00;96066.56;1026455;28;20042;-66
2021/09/27 01:57:44;;;;;;;83.30;33.63;;;;;;;14.09;100.00;96061.06;1026297;28;20061;-65
2021/09/27 01:58:36;;;;;;;85.45;33.88;;;;;;;14.13;100.00;96061.31;1026684;28;20472;-66
2021/09/27 01:59:26;;;;;;;80.05;33.28;;;;;;;14.11;100.00;96063.41;1026669;28;20053;-65
2021/09/27 02:00:02;;;;;;;93.32;35.28;;;;;;;14.11;100.00;96066.06;1028163;28;20014;-65
2021/09/27 02:00:41;;;;;;;80.03;33.40;;;;;;;14.08;100.00;96061.31;1034237;28;20428;-65
2021/09/27 02:01:43;;;;;;;96.18;37.13;;;;;;;14.10;100.00;96064.50;1025437;28;20021;-65
2021/09/27 02:02:51;;;;;;;81.65;34.67;;;;;;;14.09;100.00;96060.28;1024905;28;20058;-65
2021/09/27 02:03:44;;;;;;;108.15;36.85;;;;;;;14.03;100.00;96059.53;1030925;28;20094;-66
2021/09/27 02:04:20;;;;;;;100.88;36.63;;;;;;;14.01;100.00;96058.22;1030533;28;20058;-65
2021/09/27 02:05:17;;;;;;;82.13;33.15;;;;;;;14.06;100.00;96063.47;1022363;29;20057;-65
2021/09/27 02:05:56;;;;;;;115.80;36.22;;;;;;;14.05;100.00;96067.16;1017111;28;20388;-65
2021/09/27 02:06:41;;;;;;;96.50;36.53;;;;;;;14.06;100.00;96066.91;1031382;28;20077;-65
2021/09/27 02:07:12;;;;;;;90.00;35.65;;;;;;;14.05;100.00;96062.69;1029761;28;20796;-65
2021/09/27 02:07:56;;;;;;;83.85;35.67;;;;;;;14.06;100.00;96061.63;1019415;29;20024;-65
2021/09/27 02:08:51;;;;;;;104.35;39.38;;;;;;;14.03;100.00;96072.72;1028066;28;20634;-65
2021/09/27 02:09:26;;;;;;;100.90;36.90;;;;;;;14.04;100.00;96070.88;1031524;28;20073;-66
2021/09/27 02:10:12;;;;;;;86.70;34.78;;;;;;;14.03;100.00;96069.31;1028335;28;20037;-65
2021/09/27 02:11:04;;;;;;;111.63;38.03;;;;;;;13.99;100.00;96065.66;1019257;29;20031;-65
2021/09/27 02:11:40;;;;;;;129.43;40.78;;;;;;;13.99;100.00;96063.78;1018784;29;20028;-65
2021/09/27 02:12:23;;;;;;;153.02;41.55;;;;;;;13.94;100.00;96063.81;1021127;29;20112;-63
2021/09/27 02:12:59;;;;;;;101.13;37.05;;;;;;;13.97;100.00;96068.53;1018460;29;20453;-65
2021/09/27 02:13:32;;;;;;;131.88;40.08;;;;;;;13.93;100.00;96062.25;1026517;28;20023;-63
2021/09/27 02:14:07;;;;;;;122.07;39.05;;;;;;;13.97;100.00;96068.53;1026699;28;20027;-65
2021/09/27 02:14:48;;;;;;;97.70;37.97;;;;;;;13.92;100.00;96060.69;1020133;29;20051;-65
2021/09/27 02:15:22;;;;;;;;;;;;;;;13.98;100.00;96064.03;1031050;28;20092;-64
2021/09/27 02:16:07;;;;;;;87.95;35.40;;;;;;;13.97;100.00;96068.53;1030502;28;20366;-65
2021/09/27 02:16:50;;;;;;;112.28;38.78;;;;;;;13.94;100.00;96063.03;1026622;28;20038;-66
2021/09/27 02:17:26;;;;;;;106.97;38.88;;;;;;;13.96;100.00;96066.19;1029024;28;20022;-66
2021/09/27 02:18:03;;;;;;;90.30;36.15;;;;;;;13.96;100.00;96066.19;1026583;28;20731;-66
2021/09/27 02:18:41;;;;;;;99.40;36.42;;;;;;;13.95;100.00;96064.59;1018693;29;20020;-65
2021/09/27 02:19:27;;;;;;;89.82;35.53;;;;;;;13.95;100.00;96059.31;1018651;29;20202;-66
2021/09/27 02:20:07;;;;;;;105.88;38.20;;;;;;;13.94;100.00;96055.91;1026231;28;20123;-65
2021/09/27 02:20:48;;;;;;;137.73;40.63;;;;;;;13.94;100.00;96063.81;1024156;28;20031;-65
2021/09/27 02:21:21;;;;;;;89.85;34.83;;;;;;;13.94;100.00;96060.41;1029696;28;20516;-63
2021/09/27 02:21:54;;;;;;;101.90;38.03;;;;;;;13.93;100.00;96061.47;1026352;28;20143;-65
2021/09/27 02:22:47;;;;;;;119.78;40.38;;;;;;;13.93;100.00;96061.47;1020918;29;20038;-65
2021/09/27 02:23:30;;;;;;;97.80;36.22;;;;;;;13.93;100.00;96061.47;1024508;28;20026;-62
2021/09/27 02:24:17;;;;;;;115.68;39.97;;;;;;;13.91;100.00;96057.22;1023498;28;20301;-64
2021/09/27 02:25:08;;;;;;;115.28;39.25;;;;;;;13.88;100.00;96060.44;1026670;28;20114;-63
2021/09/27 02:25:39;;;;;;;104.70;37.13;;;;;;;13.88;100.00;96057.00;1027071;28;20057;-64
2021/09/27 02:26:10;;;;;;;113.53;39.42;;;;;;;13.87;100.00;96064.13;1022300;29;20106;-64
2021/09/27 02:26:40;;;;;;;106.30;37.40;;;;;;;13.88;100.00;96060.44;1018639;29;20042;-65
2021/09/27 02:27:11;;;;;;;124.95;39.97;;;;;;;13.87;100.00;96061.47;1018492;29;20028;-66
2021/09/27 02:27:42;;;;;;;112.15;39.30;;;;;;;13.82;100.00;96058.91;1022387;29;20046;-65
2021/09/27 02:28:14;;;;;;;118.22;40.05;;;;;;;13.86;100.00;96065.19;1018480;29;20110;-65
2021/09/27 02:28:45;;;;;;;106.38;37.95;;;;;;;13.87;100.00;96066.75;1026629;28;20528;-65
2021/09/27 02:29:16;;;;;;;117.18;40.10;;;;;;;13.87;100.00;96069.41;1030302;28;20026;-62
2021/09/27 02:29:46;;;;;;;116.97;40.83;;;;;;;13.86;100.00;96067.84;1030718;28;20113;-64
2021/09/27 02:30:19;;;;;;;101.15;38.13;;;;;;;13.80;100.00;96058.38;1026242;28;20023;-62
2021/09/27 02:30:52;;;;;;;98.00;36.95;;;;;;;13.84;100.00;96069.94;1026297;28;20034;-64
2021/09/27 02:31:48;;;;;;;104.15;37.88;;;;;;;13.84;100.00;96069.16;1021932;28;20023;-63
2021/09/27 02:32:52;;;;;;;123.90;39.75;;;;;;;13.80;100.00;96062.88;1026351;28;20015;-65
2021/09/27 02:33:46;;;;;;;125.72;39.30;;;;;;;13.78;100.00;96070.25;1029647;28;20570;-65
2021/09/27 02:34:24;;;;;;;105.50;36.55;;;;;;;13.76;100.00;96064.47;1033024;28;20029;-64
2021/09/27 02:35:05;;;;;;;128.85;38.75;;;;;;;13.75;100.00;96073.44;1033535;28;20021;-66
2021/09/27 02:35:45;;;;;;;87.82;34.63;;;;;;;13.74;100.00;96069.22;1022471;29;20504;-63
2021/09/27 02:36:39;;;;;;;141.93;40.15;;;;;;;13.68;100.00;96061.38;1021985;29;20042;-65
2021/09/27 02:37:22;;;;;;;124.60;39.85;;;;;;;13.72;100.00;96066.09;1022502;29;20034;-62
2021/09/27 02:38:05;;;;;;;105.38;37.80;;;;;;;13.66;100.00;96057.44;1022642;28;20501;-65
2021/09/27 02:38:54;;;;;;;90.43;35.38;;;;;;;13.67;100.00;96059.00;1034297;28;20022;-65
2021/09/27 02:39:30;;;;;;;120.47;39.60;;;;;;;13.68;100.00;96060.56;1030270;28;20010;-65
2021/09/27 02:40:06;;;;;;;109.60;38.00;;;;;;;13.67;100.00;96064.25;1018470;29;20034;-64
2021/09/27 02:40:40;;;;;;;104.90;37.50;;;;;;;13.66;100.00;96058.22;1026298;28;20580;-63
2021/09/27 02:41:47;;;;;;;90.65;36.03;;;;;;;13.59;100.00;96049.03;1021101;28;20023;-62
2021/09/27 02:42:19;;;;;;;103.68;35.13;;;;;;;13.62;100.00;96056.41;1025832;28;20030;-65
2021/09/27 02:42:54;;;;;;;95.18;35.90;;;;;;;13.62;100.00;96059.03;1025739;28;20027;-63
2021/09/27 02:43:25;;;;;;;85.38;34.85;;;;;;;13.59;100.00;96051.69;1022857;28;20467;-65
2021/09/27 02:43:55;;;;;;;176.77;46.63;;;;;;;13.58;100.00;96055.34;1019459;29;20030;-65
2021/09/27 02:44:28;;;;;;;190.15;46.15;;;;;;;13.60;100.00;96061.94;1027519;28;20035;-65
2021/09/27 02:44:59;;;;;;;152.95;40.42;;;;;;;13.57;100.00;96064.34;1026427;28;20816;-65
2021/09/27 02:45:29;;;;;;;153.75;43.38;;;;;;;13.55;100.00;96061.97;1026568;28;20405;-64
2021/09/27 02:46:00;;;;;;;149.35;43.63;;;;;;;13.56;100.00;96058.28;1022563;29;20061;-64
2021/09/27 02:46:30;;;;;;;149.68;43.58;;;;;;;13.55;100.00;96061.19;1026053;28;20015;-63
2021/09/27 02:47:02;;;;;;;105.13;36.17;;;;;;;13.54;100.00;96059.59;1029192;28;20117;-65
2021/09/27 02:47:55;;;;;;;115.45;38.53;;;;;;;13.54;100.00;96064.88;1026551;28;20129;-64
2021/09/27 02:48:39;;;;;;;115.93;37.53;;;;;;;13.55;100.00;96061.19;1022467;28;20383;-65
2021/09/27 02:49:13;;;;;;;130.00;41.05;;;;;;;13.53;100.00;96060.66;1027110;28;20069;-64
2021/09/27 02:49:45;;;;;;;144.57;43.78;;;;;;;13.52;100.00;96061.75;1030513;28;20355;-65
2021/09/27 02:50:22;;;;;;;131.50;40.97;;;;;;;13.51;100.00;96060.16;1028621;28;20333;-64
2021/09/27 02:50:53;;;;;;;104.03;38.40;;;;;;;13.53;100.00;96063.31;1027704;28;20121;-65
2021/09/27 02:51:24;;;;;;;123.95;40.17;;;;;;;13.51;100.00;96065.41;1024793;28;20039;-65